Aviation Digital Data Service (ADDS)

Output produced by METARs form (1311 UTC 23 January 2019)
found at http://www.aviationweather.gov/metar/data/
 
Forecast for: FACT (CAPETOWN/DF MALA, ZA)
Text: TAF FACT 231000Z 2312/2418 18010KT 9999 SCT035 TX27/2412Z TN15/2404Z
Forecast period: 1200 to 1400 UTC 23 January 2019
Forecast type: FROM: standard forecast or significant change
Winds: from the S (180 degrees) at 12 MPH (10 knots; 5.1 m/s)
Visibility: 6 or more miles 10+ km)
Ceiling: at least 12,000 feet AGL
Clouds: scattered clouds at 3500 feet AGL
Weather: no significant weather forecast for this period
Text: FM231400 17018KT 9999 FEW045
Forecast period: 1400 UTC 23 January 2019 to 1000 UTC 24 January 2019
Forecast type: FROM: standard forecast or significant change
Winds: from the S (170 degrees) at 21 MPH (18 knots; 9.3 m/s)
Visibility: 6 or more miles 10+ km)
Ceiling: at least 12,000 feet AGL
Clouds: few clouds at 4500 feet AGL
Weather: no significant weather forecast for this period
Text: BECMG 2410/2412 16026KT
Forecast period: 1000 to 1800 UTC 24 January 2019
Forecast type: BECOMING: Conditions expected to become as follows by 1200 UTC 24 January 2019
Winds: from the SSE (160 degrees) at 30 MPH (26 knots; 13.4 m/s)
Visibility: 6 or more miles 10+ km)
Ceiling: at least 12,000 feet AGL
Clouds: few clouds at 4500 feet AGL
Weather: no significant weather forecast for this period